Huvudsida
METAR-TAF:

METAR-TAF

Flygplatser :

Kairos internationella flygplats

Kairo, Egypten

latitud: 30-08N, longitud: 031-24E, höjd: 64 m

Aktuellt väderrapport

Denna rapport gjordes för 43 minuter sedan, klockan 12:00 UTC
Vind 15 kt från väst
Temperatur 22°C
Fuktighet 41%
Tryck 1020 hPa
Sikt: 6000 m
Brutna moln på en höjd av 2500 ft

METAR: HECA 121200Z 28015KT 6000 BKN025 22/08 Q1020 NOSIG

Tid: 14:43 (12:43 UTC)

Väderprognos

Denna rapport gjordes för 1 timme och 43 minuter sedan, klockan 11:00 UTC
Prognos gäller från 12 kl. 12 UTC till 13 kl. 18 UTC
Vind 9 kt från sydväst
Sikt 10 km eller mer
Spridda moln på en höjd av 2500 ft
Temporärt
från 12 kl. 12 UTC till 12 kl. 18 UTC
Vind 15 kt från sydväst
Sikt: 4000 m
sand
Temporärt
från 13 kl. 00 UTC till 13 kl. 07 UTC
Vind 3 kt varierande vindriktning
Sikt: 2000 m
fuktdis

TAF: HECA 121100Z 1212/1318 23009KT 9999 SCT025 TEMPO 1212/1218 23015KT 4000 SA TEMPO 1300/1307 VRB03KT 2000 BR NSC

Aktuella väderrapporter och prognoser från 4000 flygplatser (METAR- och TAF-rapporter).

De tillgängliga stationerna syns som gula och röda prickar på kartan.

För musen över prickarna för att se namnen på stationerna.

Klicka sedan för att få väderrapporter och prognoser.

För att ändra kartan: Klicka på de gröna knapparna med ett svart kors på för att zooma in; den gröna knappen med ett streck på för att zooma ut; eller på de gröna pilarna för angränsande kartor.


METAR-TAF: